createdAt,value
2022-09-28T00:01:24.131Z,11.20
2022-09-28T00:03:54.496Z,11.20
2022-09-28T00:06:24.944Z,11.20
2022-09-28T00:08:52.715Z,11.20
2022-09-28T00:11:22.311Z,11.20
2022-09-28T00:13:52.834Z,11.20
2022-09-28T00:16:26.047Z,11.20
2022-09-28T00:18:54.387Z,11.30
2022-09-28T00:21:34.231Z,11.30
2022-09-28T00:24:12.747Z,11.30
2022-09-28T00:26:43.808Z,11.30
2022-09-28T00:29:35.404Z,11.30
2022-09-28T00:32:07.884Z,11.30
2022-09-28T00:34:42.457Z,11.30
2022-09-28T00:37:10.492Z,11.40
2022-09-28T00:39:41.257Z,11.30
2022-09-28T00:42:25.902Z,11.30
2022-09-28T00:44:59.864Z,11.40
2022-09-28T00:47:41.721Z,11.40
2022-09-28T00:50:31.714Z,11.40
2022-09-28T00:53:09.782Z,11.40
2022-09-28T00:56:03.594Z,11.40
2022-09-28T00:58:35.649Z,11.40
2022-09-28T01:01:04.180Z,11.40
2022-09-28T01:03:33.267Z,11.40
2022-09-28T01:06:03.921Z,11.40
2022-09-28T01:08:34.229Z,11.40
2022-09-28T01:11:01.335Z,11.40
2022-09-28T01:13:31.498Z,11.40
2022-09-28T01:16:04.056Z,11.30
2022-09-28T01:19:14.059Z,11.40
2022-09-28T01:22:22.829Z,11.30
2022-09-28T01:25:17.655Z,11.30
2022-09-28T01:28:14.283Z,11.30
2022-09-28T01:31:03.917Z,11.30
2022-09-28T01:33:42.354Z,11.30
2022-09-28T01:36:17.802Z,11.30
2022-09-28T01:38:55.360Z,11.30
2022-09-28T01:41:26.945Z,11.20
2022-09-28T01:44:02.936Z,11.30
2022-09-28T01:46:48.178Z,11.30
2022-09-28T01:49:31.221Z,11.30
2022-09-28T01:52:04.905Z,11.30
2022-09-28T01:54:36.393Z,11.30
2022-09-28T01:57:34.195Z,11.30
2022-09-28T02:00:15.109Z,11.30
2022-09-28T02:02:49.480Z,11.30
2022-09-28T02:05:24.803Z,11.40
2022-09-28T02:08:09.016Z,11.30
2022-09-28T02:10:46.252Z,11.40
2022-09-28T02:13:36.917Z,11.30
2022-09-28T02:16:31.382Z,11.40
2022-09-28T02:18:58.810Z,11.40
2022-09-28T02:21:46.569Z,11.30
2022-09-28T02:24:29.119Z,11.30
2022-09-28T02:27:00.628Z,11.40
2022-09-28T02:29:27.837Z,11.40
2022-09-28T02:31:54.741Z,11.40
2022-09-28T02:34:21.627Z,11.40
2022-09-28T02:36:48.669Z,11.40
2022-09-28T02:39:17.739Z,11.50
2022-09-28T02:41:50.397Z,11.50
2022-09-28T02:45:04.315Z,11.50
2022-09-28T02:48:16.012Z,11.50
2022-09-28T02:51:04.138Z,11.50
2022-09-28T02:54:18.651Z,11.50
2022-09-28T02:57:13.334Z,11.50
2022-09-28T03:00:02.328Z,11.40
2022-09-28T03:03:01.415Z,11.40
2022-09-28T03:05:47.368Z,11.40
2022-09-28T03:08:52.386Z,11.30
2022-09-28T03:11:31.974Z,11.30
2022-09-28T03:14:00.816Z,11.30
2022-09-28T03:16:28.596Z,11.30
2022-09-28T03:18:55.435Z,11.30
2022-09-28T03:21:22.210Z,11.30
2022-09-28T03:23:49.060Z,11.30
2022-09-28T03:26:16.813Z,11.20
2022-09-28T03:28:43.761Z,11.20
2022-09-28T03:31:10.672Z,11.20
2022-09-28T03:33:37.521Z,11.20
2022-09-28T03:36:04.661Z,11.10
2022-09-28T03:38:31.486Z,11.10
2022-09-28T03:41:00.631Z,11.00
2022-09-28T03:43:30.015Z,11.00
2022-09-28T03:46:00.528Z,11.00
2022-09-28T03:48:32.634Z,11.00
2022-09-28T03:51:03.834Z,11.00
2022-09-28T03:53:30.796Z,11.00
2022-09-28T03:56:13.898Z,11.00
2022-09-28T03:58:40.797Z,11.00
2022-09-28T04:01:16.989Z,11.00
2022-09-28T04:03:45.384Z,11.00
2022-09-28T04:06:13.869Z,11.00
2022-09-28T04:08:40.796Z,11.00
2022-09-28T04:11:07.642Z,11.00
2022-09-28T04:13:34.432Z,11.00
2022-09-28T04:16:02.152Z,11.00
2022-09-28T04:18:29.410Z,11.00
2022-09-28T04:21:07.366Z,11.00
2022-09-28T04:23:36.413Z,11.00
2022-09-28T04:26:05.905Z,11.00
2022-09-28T04:28:51.697Z,11.00
2022-09-28T04:31:22.587Z,11.00
2022-09-28T04:33:49.664Z,11.00
2022-09-28T04:36:17.819Z,11.00
2022-09-28T04:38:53.482Z,11.00
2022-09-28T04:41:22.487Z,11.00
2022-09-28T04:43:49.976Z,11.00
2022-09-28T04:46:17.118Z,11.00
2022-09-28T04:48:44.285Z,11.00
2022-09-28T04:51:11.251Z,11.00
2022-09-28T04:53:38.248Z,10.90
2022-09-28T04:56:09.753Z,11.00
2022-09-28T04:58:37.106Z,11.00
2022-09-28T05:01:09.537Z,11.00
2022-09-28T05:03:36.652Z,11.00
2022-09-28T05:06:03.881Z,11.00
2022-09-28T05:08:30.729Z,11.00
2022-09-28T05:11:06.747Z,11.00
2022-09-28T05:13:41.697Z,11.00
2022-09-28T05:16:10.282Z,11.00
2022-09-28T05:18:37.261Z,11.00
2022-09-28T05:21:09.433Z,11.00
2022-09-28T05:23:36.358Z,11.00
2022-09-28T05:26:03.195Z,11.00
2022-09-28T05:28:33.167Z,11.00
2022-09-28T05:31:02.057Z,11.00
2022-09-28T05:33:30.147Z,11.00
2022-09-28T05:36:01.642Z,11.00
2022-09-28T05:38:30.043Z,11.00
2022-09-28T05:40:57.773Z,11.00
2022-09-28T05:43:24.855Z,11.00
2022-09-28T05:45:55.515Z,11.00
2022-09-28T05:48:23.215Z,11.00
2022-09-28T05:50:53.164Z,11.00
2022-09-28T05:53:20.470Z,11.00
2022-09-28T05:55:47.723Z,11.10
2022-09-28T05:58:14.683Z,11.10
2022-09-28T06:00:41.474Z,11.00
2022-09-28T06:03:13.675Z,11.00
2022-09-28T06:05:41.996Z,11.00
2022-09-28T06:08:13.088Z,11.00
2022-09-28T06:10:40.352Z,11.00
2022-09-28T06:13:08.483Z,11.00
2022-09-28T06:15:36.641Z,11.00
2022-09-28T06:18:07.890Z,11.00
2022-09-28T06:20:41.292Z,11.10
2022-09-28T06:23:13.137Z,11.10
2022-09-28T06:25:40.567Z,11.10
2022-09-28T06:28:11.849Z,11.20
2022-09-28T06:30:40.409Z,11.10
2022-09-28T06:33:12.489Z,11.10
2022-09-28T06:35:40.629Z,11.00
2022-09-28T06:38:07.781Z,11.00
2022-09-28T06:40:35.706Z,11.00
2022-09-28T06:43:10.604Z,11.00
2022-09-28T06:45:38.869Z,11.00
2022-09-28T06:48:06.570Z,11.00
2022-09-28T06:50:40.493Z,11.00
2022-09-28T06:53:11.894Z,11.10
2022-09-28T06:55:46.040Z,11.10
2022-09-28T06:58:17.201Z,11.10
2022-09-28T07:00:44.543Z,11.10
2022-09-28T07:03:20.861Z,11.10
2022-09-28T07:05:51.426Z,11.10
2022-09-28T07:08:18.599Z,11.10
2022-09-28T07:10:49.494Z,11.20
2022-09-28T07:13:45.269Z,11.20
2022-09-28T07:16:04.557Z,11.20
2022-09-28T07:18:31.531Z,11.20
2022-09-28T07:20:58.989Z,11.20
2022-09-28T07:23:29.594Z,11.20
2022-09-28T07:25:58.206Z,11.20
2022-09-28T07:28:25.401Z,11.20
2022-09-28T07:30:52.800Z,11.20
2022-09-28T07:33:19.719Z,11.30
2022-09-28T07:35:55.501Z,11.20
2022-09-28T07:38:22.625Z,11.30
2022-09-28T07:41:08.132Z,11.30
2022-09-28T07:43:35.332Z,11.30
2022-09-28T07:46:02.336Z,11.40
2022-09-28T07:48:37.759Z,11.30
2022-09-28T07:51:05.305Z,11.30
2022-09-28T07:53:32.165Z,11.40
2022-09-28T07:56:09.295Z,11.40
2022-09-28T07:58:38.428Z,11.40
2022-09-28T08:01:11.685Z,11.50
2022-09-28T08:03:39.448Z,11.50
2022-09-28T08:06:11.051Z,11.50
2022-09-28T08:08:40.102Z,11.60
2022-09-28T08:11:07.448Z,11.60
2022-09-28T08:13:34.231Z,11.60
2022-09-28T08:16:02.320Z,11.60
2022-09-28T08:18:32.986Z,11.60
2022-09-28T08:21:18.589Z,11.70
2022-09-28T08:23:45.379Z,11.70
2022-09-28T08:26:15.421Z,11.70
2022-09-28T08:28:44.922Z,11.70
2022-09-28T08:31:11.882Z,11.80
2022-09-28T08:33:38.767Z,11.80
2022-09-28T08:36:06.147Z,11.80
2022-09-28T08:38:33.367Z,11.80
2022-09-28T08:41:18.746Z,11.80
2022-09-28T08:44:24.809Z,11.90
2022-09-28T08:47:06.608Z,11.90
2022-09-28T08:49:46.562Z,11.90
2022-09-28T08:52:23.497Z,11.90
2022-09-28T08:55:15.259Z,12.00
2022-09-28T08:57:59.029Z,12.00
2022-09-28T09:00:41.157Z,12.10
2022-09-28T09:03:16.173Z,12.10
2022-09-28T09:06:06.874Z,12.10
2022-09-28T09:09:42.479Z,12.10
2022-09-28T09:12:15.211Z,12.20
2022-09-28T09:14:47.763Z,12.20
2022-09-28T09:17:29.151Z,12.20
2022-09-28T09:20:45.456Z,12.30
2022-09-28T09:23:39.127Z,12.30
2022-09-28T09:26:25.292Z,12.30
2022-09-28T09:29:45.096Z,12.40
2022-09-28T09:33:06.920Z,12.40
2022-09-28T09:35:58.868Z,12.40
2022-09-28T09:39:11.950Z,12.30
2022-09-28T09:42:14.498Z,12.20
2022-09-28T09:45:26.337Z,12.20
2022-09-28T09:48:17.479Z,12.10
2022-09-28T09:50:58.121Z,12.10
2022-09-28T09:53:42.145Z,12.10
2022-09-28T09:56:26.769Z,12.10
2022-09-28T09:59:04.491Z,12.10
2022-09-28T10:01:38.488Z,12.20
2022-09-28T10:04:22.146Z,12.20
2022-09-28T10:06:56.563Z,12.20
2022-09-28T10:09:37.776Z,12.20
2022-09-28T10:12:04.918Z,12.20
2022-09-28T10:14:31.762Z,12.30
2022-09-28T10:17:00.848Z,12.30
2022-09-28T10:19:37.120Z,12.30
2022-09-28T10:22:06.835Z,12.40
2022-09-28T10:24:45.149Z,12.40
2022-09-28T10:27:21.490Z,12.30
2022-09-28T10:29:55.290Z,12.40
2022-09-28T10:32:26.702Z,12.30
2022-09-28T10:35:12.545Z,12.30
2022-09-28T10:37:55.076Z,12.20
2022-09-28T10:40:46.428Z,12.20
2022-09-28T10:43:27.549Z,12.30
2022-09-28T10:46:10.847Z,12.20
2022-09-28T10:48:56.355Z,12.20
2022-09-28T10:51:41.655Z,12.20
2022-09-28T10:54:16.882Z,12.20
2022-09-28T10:56:45.793Z,12.20
2022-09-28T10:59:30.657Z,12.20
2022-09-28T11:02:25.980Z,12.20
2022-09-28T11:04:59.883Z,12.20
2022-09-28T11:07:33.390Z,12.30
2022-09-28T11:10:01.923Z,12.30
2022-09-28T11:12:42.563Z,12.30
2022-09-28T11:15:27.104Z,12.40
2022-09-28T11:17:53.968Z,12.40
2022-09-28T11:20:28.329Z,12.50
2022-09-28T11:23:26.705Z,12.60
2022-09-28T11:26:09.535Z,12.70
2022-09-28T11:28:39.034Z,12.80
2022-09-28T11:31:08.459Z,12.80
2022-09-28T11:33:46.099Z,12.80
2022-09-28T11:36:17.275Z,12.70
2022-09-28T11:39:20.194Z,12.70
2022-09-28T11:42:10.955Z,12.70
2022-09-28T11:44:48.794Z,12.70
2022-09-28T11:47:57.673Z,12.70
2022-09-28T11:50:45.233Z,12.70
2022-09-28T11:53:32.921Z,12.70
2022-09-28T11:56:27.678Z,12.70
2022-09-28T11:59:03.998Z,12.80
2022-09-28T12:01:56.553Z,12.90
2022-09-28T12:04:56.887Z,12.90
2022-09-28T12:07:53.405Z,13.00
2022-09-28T12:10:45.518Z,13.00
2022-09-28T12:13:20.440Z,13.00
2022-09-28T12:16:23.489Z,13.00
2022-09-28T12:19:19.352Z,13.10
2022-09-28T12:22:03.020Z,13.00
2022-09-28T12:24:45.684Z,13.00
2022-09-28T12:27:38.606Z,13.10
2022-09-28T12:30:16.772Z,13.10
2022-09-28T12:33:04.334Z,13.20
2022-09-28T12:36:08.717Z,13.30
2022-09-28T12:39:35.567Z,13.30
2022-09-28T12:42:06.699Z,13.40
2022-09-28T12:45:17.397Z,13.40
2022-09-28T12:48:20.069Z,13.50
2022-09-28T12:51:14.192Z,13.50
2022-09-28T12:54:22.311Z,13.40
2022-09-28T12:57:01.948Z,13.40
2022-09-28T12:59:42.026Z,13.30
2022-09-28T13:02:41.219Z,13.30
2022-09-28T13:05:34.545Z,13.30
2022-09-28T13:08:37.940Z,13.30
2022-09-28T13:11:10.155Z,13.30
2022-09-28T13:14:33.733Z,13.30
2022-09-28T13:17:15.986Z,13.30
2022-09-28T13:20:13.243Z,13.30
2022-09-28T13:22:56.001Z,13.40
2022-09-28T13:25:27.615Z,13.40
2022-09-28T13:28:05.766Z,13.40
2022-09-28T13:30:38.939Z,13.40
2022-09-28T13:33:10.607Z,13.40
2022-09-28T13:35:43.911Z,13.40
2022-09-28T13:38:30.253Z,13.30
2022-09-28T13:41:06.253Z,13.20
2022-09-28T13:44:10.192Z,13.20
2022-09-28T13:47:05.147Z,13.20
2022-09-28T13:49:56.975Z,13.20
2022-09-28T13:52:40.200Z,13.20
2022-09-28T13:56:02.739Z,13.20
2022-09-28T13:58:41.408Z,13.20
2022-09-28T14:01:29.337Z,13.20
2022-09-28T14:04:25.346Z,13.10
2022-09-28T14:07:16.779Z,13.10
2022-09-28T14:10:07.137Z,13.00
2022-09-28T14:12:33.855Z,12.90
2022-09-28T14:15:02.266Z,12.90
2022-09-28T14:17:29.039Z,12.90
2022-09-28T14:20:12.996Z,12.90
2022-09-28T14:23:18.725Z,12.90
2022-09-28T14:26:00.652Z,12.90
2022-09-28T14:29:24.681Z,12.90
2022-09-28T14:31:51.691Z,12.90
2022-09-28T14:34:35.421Z,13.00
2022-09-28T14:37:36.946Z,13.00
2022-09-28T14:40:36.515Z,13.00
2022-09-28T14:43:26.378Z,12.90
2022-09-28T14:46:10.993Z,12.90
2022-09-28T14:48:55.472Z,12.90
2022-09-28T14:51:30.037Z,12.80
2022-09-28T14:54:01.221Z,12.70
2022-09-28T14:56:54.312Z,12.70
2022-09-28T14:59:25.357Z,12.70
2022-09-28T15:02:04.293Z,12.60
2022-09-28T15:04:36.606Z,12.60
2022-09-28T15:07:03.506Z,12.50
2022-09-28T15:09:36.663Z,12.50
2022-09-28T15:12:13.093Z,12.50
2022-09-28T15:15:02.283Z,12.40
2022-09-28T15:17:39.798Z,12.40
2022-09-28T15:20:31.542Z,12.40
2022-09-28T15:23:00.023Z,12.30
2022-09-28T15:25:31.760Z,12.30
2022-09-28T15:28:19.470Z,12.30
2022-09-28T15:30:46.505Z,12.30
2022-09-28T15:33:52.575Z,12.30
2022-09-28T15:36:28.270Z,12.30
2022-09-28T15:39:02.563Z,12.20
2022-09-28T15:41:29.920Z,12.30
2022-09-28T15:44:32.276Z,12.20
2022-09-28T15:47:13.835Z,12.20
2022-09-28T15:50:05.952Z,12.20
2022-09-28T15:52:46.496Z,12.20
2022-09-28T15:55:37.293Z,12.20
2022-09-28T15:58:21.788Z,12.10
2022-09-28T16:00:51.683Z,12.10
2022-09-28T16:03:28.753Z,12.10
2022-09-28T16:05:58.266Z,12.10
2022-09-28T16:08:31.546Z,12.00
2022-09-28T16:11:45.929Z,12.00
2022-09-28T16:14:19.499Z,12.00
2022-09-28T16:16:52.460Z,12.00
2022-09-28T16:19:30.117Z,12.00
2022-09-28T16:22:02.464Z,12.00
2022-09-28T16:24:38.335Z,12.00
2022-09-28T16:27:06.555Z,12.00
2022-09-28T16:29:43.815Z,12.00
2022-09-28T16:32:25.924Z,11.90
2022-09-28T16:35:13.391Z,11.90
2022-09-28T16:37:42.697Z,12.00
2022-09-28T16:40:13.756Z,11.90
2022-09-28T16:42:48.690Z,11.90
2022-09-28T16:45:23.337Z,11.90
2022-09-28T16:47:53.496Z,11.90
2022-09-28T16:50:23.260Z,11.80
2022-09-28T16:53:32.565Z,11.80
2022-09-28T16:56:01.035Z,11.80
2022-09-28T16:58:29.054Z,11.70
2022-09-28T17:00:56.412Z,11.70
2022-09-28T17:03:24.253Z,11.70
2022-09-28T17:05:52.815Z,11.70
2022-09-28T17:08:23.833Z,11.70
2022-09-28T17:11:22.775Z,11.70
2022-09-28T17:13:49.027Z,11.70
2022-09-28T17:16:37.223Z,11.70
2022-09-28T17:19:28.572Z,11.70
2022-09-28T17:21:55.493Z,11.70
2022-09-28T17:24:22.387Z,11.80
2022-09-28T17:26:52.040Z,11.70
2022-09-28T17:29:19.704Z,11.70
2022-09-28T17:31:47.950Z,11.70
2022-09-28T17:34:16.196Z,11.70
2022-09-28T17:36:44.844Z,11.70
2022-09-28T17:39:14.464Z,11.70
2022-09-28T17:41:41.759Z,11.70
2022-09-28T17:44:09.016Z,11.70
2022-09-28T17:46:48.652Z,11.70
2022-09-28T17:49:18.710Z,11.70
2022-09-28T17:51:45.777Z,11.70
2022-09-28T17:54:20.776Z,11.70
2022-09-28T17:56:47.967Z,11.70
2022-09-28T17:59:18.318Z,11.70
2022-09-28T18:01:45.275Z,11.60
2022-09-28T18:04:27.920Z,11.60
2022-09-28T18:07:00.358Z,11.60
2022-09-28T18:09:27.227Z,11.60
2022-09-28T18:12:03.923Z,11.60
2022-09-28T18:14:30.857Z,11.50
2022-09-28T18:16:57.914Z,11.50
2022-09-28T18:19:28.637Z,11.50
2022-09-28T18:21:59.040Z,11.50
2022-09-28T18:24:25.911Z,11.50
2022-09-28T18:26:52.745Z,11.50
2022-09-28T18:29:19.693Z,11.50
2022-09-28T18:31:47.491Z,11.60
2022-09-28T18:34:15.534Z,11.60
2022-09-28T18:36:42.424Z,11.60
2022-09-28T18:39:09.302Z,11.50
2022-09-28T18:41:36.264Z,11.50
2022-09-28T18:44:03.132Z,11.50
2022-09-28T18:46:36.567Z,11.50
2022-09-28T18:49:04.859Z,11.50
2022-09-28T18:51:31.806Z,11.50
2022-09-28T18:54:00.110Z,11.40
2022-09-28T18:56:27.139Z,11.40
2022-09-28T18:58:54.000Z,11.30
2022-09-28T19:01:30.700Z,11.30
2022-09-28T19:04:08.506Z,11.20
2022-09-28T19:06:42.473Z,11.10
2022-09-28T19:09:09.531Z,11.10
2022-09-28T19:11:36.531Z,11.10
2022-09-28T19:14:03.626Z,11.10
2022-09-28T19:16:34.013Z,11.00
2022-09-28T19:19:03.039Z,11.00
2022-09-28T19:21:30.665Z,10.90
2022-09-28T19:24:01.618Z,10.90
2022-09-28T19:26:28.961Z,10.90
2022-09-28T19:28:57.743Z,10.90
2022-09-28T19:31:25.670Z,10.90
2022-09-28T19:33:52.634Z,10.80
2022-09-28T19:36:24.582Z,10.80
2022-09-28T19:38:53.436Z,10.80
2022-09-28T19:41:44.802Z,10.80
2022-09-28T19:44:27.759Z,10.80
2022-09-28T19:47:06.666Z,10.80
2022-09-28T19:49:37.203Z,10.80
2022-09-28T19:52:15.874Z,10.80
2022-09-28T19:55:07.614Z,10.70
2022-09-28T19:57:34.860Z,10.80
2022-09-28T20:00:03.743Z,10.80
2022-09-28T20:02:30.949Z,10.80
2022-09-28T20:04:57.967Z,10.80
2022-09-28T20:07:24.905Z,10.80
2022-09-28T20:09:51.807Z,10.80
2022-09-28T20:12:19.124Z,10.80
2022-09-28T20:14:45.989Z,10.80
2022-09-28T20:17:13.063Z,10.80
2022-09-28T20:19:39.959Z,10.70
2022-09-28T20:22:06.900Z,10.70
2022-09-28T20:24:33.839Z,10.70
2022-09-28T20:27:01.319Z,10.70
2022-09-28T20:29:29.202Z,10.70
2022-09-28T20:31:56.639Z,10.70
2022-09-28T20:34:23.513Z,10.70
2022-09-28T20:36:50.302Z,10.70
2022-09-28T20:39:17.327Z,10.70
2022-09-28T20:41:46.029Z,10.70
2022-09-28T20:44:12.889Z,10.70
2022-09-28T20:46:39.849Z,10.70
2022-09-28T20:49:07.649Z,10.70
2022-09-28T20:51:34.651Z,10.70
2022-09-28T20:54:01.518Z,10.70
2022-09-28T20:56:40.014Z,10.70
2022-09-28T20:59:12.341Z,10.70
2022-09-28T21:01:40.258Z,10.70
2022-09-28T21:04:09.137Z,10.70
2022-09-28T21:06:40.363Z,10.70
2022-09-28T21:09:12.286Z,10.70
2022-09-28T21:11:40.147Z,10.70
2022-09-28T21:14:09.584Z,10.70
2022-09-28T21:16:36.476Z,10.60
2022-09-28T21:19:04.203Z,10.60
2022-09-28T21:21:31.225Z,10.60
2022-09-28T21:23:58.879Z,10.60
2022-09-28T21:26:31.185Z,10.60
2022-09-28T21:28:59.461Z,10.60
2022-09-28T21:31:31.441Z,10.60
2022-09-28T21:33:59.315Z,10.60
2022-09-28T21:36:26.463Z,10.60
2022-09-28T21:38:56.093Z,10.70
2022-09-28T21:41:24.717Z,10.70
2022-09-28T21:43:52.240Z,10.70
2022-09-28T21:46:19.282Z,10.70
2022-09-28T21:48:46.306Z,10.80
2022-09-28T21:51:15.542Z,10.80
2022-09-28T21:53:42.851Z,10.80
2022-09-28T21:56:13.015Z,10.80
2022-09-28T21:58:40.429Z,10.80
2022-09-28T22:01:25.440Z,10.80
2022-09-28T22:03:56.480Z,10.80
2022-09-28T22:06:28.118Z,10.80
2022-09-28T22:08:55.559Z,10.80
2022-09-28T22:11:25.550Z,10.70
2022-09-28T22:13:56.402Z,10.80
2022-09-28T22:16:25.620Z,10.80
2022-09-28T22:18:52.690Z,10.80
2022-09-28T22:21:28.727Z,10.80
2022-09-28T22:24:01.106Z,10.70
2022-09-28T22:26:31.446Z,10.70
2022-09-28T22:29:02.684Z,10.70
2022-09-28T22:31:34.177Z,10.70
2022-09-28T22:34:01.925Z,10.60
2022-09-28T22:36:29.729Z,10.70
2022-09-28T22:38:57.950Z,10.60
2022-09-28T22:41:25.583Z,10.70
2022-09-28T22:43:54.631Z,10.70
2022-09-28T22:46:27.883Z,10.70
2022-09-28T22:48:58.383Z,10.60
2022-09-28T22:51:28.501Z,10.60
2022-09-28T22:53:56.660Z,10.60
2022-09-28T22:56:23.870Z,10.70
2022-09-28T22:58:50.832Z,10.60
2022-09-28T23:01:22.798Z,10.60
2022-09-28T23:03:52.042Z,10.60
2022-09-28T23:06:21.905Z,10.60
2022-09-28T23:08:51.691Z,10.60
2022-09-28T23:11:19.593Z,10.60
2022-09-28T23:14:14.749Z,10.60
2022-09-28T23:16:41.696Z,10.70
2022-09-28T23:19:08.577Z,10.60
2022-09-28T23:21:37.061Z,10.70
2022-09-28T23:24:04.194Z,10.70
2022-09-28T23:26:33.148Z,10.80
2022-09-28T23:29:00.738Z,10.80
2022-09-28T23:31:31.406Z,10.80
2022-09-28T23:34:01.406Z,10.80
2022-09-28T23:36:28.428Z,10.80
2022-09-28T23:38:55.277Z,10.80
2022-09-28T23:41:22.161Z,10.80
2022-09-28T23:43:49.013Z,10.80
2022-09-28T23:46:20.483Z,10.80
2022-09-28T23:48:49.176Z,10.80
2022-09-28T23:51:16.224Z,10.80
2022-09-28T23:53:43.582Z,10.90
2022-09-28T23:56:10.661Z,10.90
2022-09-28T23:58:37.526Z,10.90
